sensor_id;sensor_type;location;lat;lon;timestamp;P1;durP1;ratioP1;P2;durP2;ratioP2
19402;SDS011;9837;48.888;8.998;2023-01-29T00:01:07;6.87;;;4.23;;
19402;SDS011;9837;48.888;8.998;2023-01-29T00:03:33;5.13;;;4.00;;
19402;SDS011;9837;48.888;8.998;2023-01-29T00:05:59;7.00;;;4.77;;
19402;SDS011;9837;48.888;8.998;2023-01-29T00:08:28;7.17;;;4.40;;
19402;SDS011;9837;48.888;8.998;2023-01-29T00:10:59;5.93;;;4.90;;
19402;SDS011;9837;48.888;8.998;2023-01-29T00:13:26;8.07;;;4.33;;
19402;SDS011;9837;48.888;8.998;2023-01-29T00:15:52;7.50;;;5.13;;
19402;SDS011;9837;48.888;8.998;2023-01-29T00:18:19;5.47;;;4.47;;
19402;SDS011;9837;48.888;8.998;2023-01-29T00:20:45;6.33;;;5.10;;
19402;SDS011;9837;48.888;8.998;2023-01-29T00:23:10;9.87;;;5.13;;
19402;SDS011;9837;48.888;8.998;2023-01-29T00:25:36;6.47;;;5.13;;
19402;SDS011;9837;48.888;8.998;2023-01-29T00:28:02;6.83;;;5.40;;
19402;SDS011;9837;48.888;8.998;2023-01-29T00:30:28;11.80;;;6.50;;
19402;SDS011;9837;48.888;8.998;2023-01-29T00:32:53;11.93;;;6.00;;
19402;SDS011;9837;48.888;8.998;2023-01-29T00:35:19;7.30;;;4.87;;
19402;SDS011;9837;48.888;8.998;2023-01-29T00:37:45;7.07;;;5.03;;
19402;SDS011;9837;48.888;8.998;2023-01-29T00:40:11;5.50;;;4.80;;
19402;SDS011;9837;48.888;8.998;2023-01-29T00:42:37;8.93;;;5.27;;
19402;SDS011;9837;48.888;8.998;2023-01-29T00:45:21;6.17;;;4.67;;
19402;SDS011;9837;48.888;8.998;2023-01-29T00:47:46;5.37;;;4.23;;
19402;SDS011;9837;48.888;8.998;2023-01-29T00:50:12;7.40;;;5.20;;
19402;SDS011;9837;48.888;8.998;2023-01-29T00:52:38;6.73;;;4.50;;
19402;SDS011;9837;48.888;8.998;2023-01-29T00:55:07;6.33;;;4.53;;
19402;SDS011;9837;48.888;8.998;2023-01-29T00:57:35;7.17;;;4.60;;
19402;SDS011;9837;48.888;8.998;2023-01-29T01:00:03;8.87;;;4.87;;
19402;SDS011;9837;48.888;8.998;2023-01-29T01:02:31;6.63;;;4.73;;
19402;SDS011;9837;48.888;8.998;2023-01-29T01:05:15;6.17;;;4.47;;
19402;SDS011;9837;48.888;8.998;2023-01-29T01:07:51;7.10;;;4.57;;
19402;SDS011;9837;48.888;8.998;2023-01-29T01:10:28;6.60;;;4.63;;
19402;SDS011;9837;48.888;8.998;2023-01-29T01:13:04;8.27;;;5.00;;
19402;SDS011;9837;48.888;8.998;2023-01-29T01:15:32;9.53;;;4.67;;
19402;SDS011;9837;48.888;8.998;2023-01-29T01:18:00;8.60;;;5.50;;
19402;SDS011;9837;48.888;8.998;2023-01-29T01:20:29;9.80;;;5.43;;
19402;SDS011;9837;48.888;8.998;2023-01-29T01:22:56;12.53;;;7.97;;
19402;SDS011;9837;48.888;8.998;2023-01-29T01:25:22;8.10;;;5.30;;
19402;SDS011;9837;48.888;8.998;2023-01-29T01:27:51;8.50;;;5.40;;
19402;SDS011;9837;48.888;8.998;2023-01-29T01:30:20;5.80;;;4.77;;
19402;SDS011;9837;48.888;8.998;2023-01-29T01:32:47;9.40;;;5.40;;
19402;SDS011;9837;48.888;8.998;2023-01-29T01:35:12;11.37;;;5.80;;
19402;SDS011;9837;48.888;8.998;2023-01-29T01:37:41;12.03;;;5.73;;
19402;SDS011;9837;48.888;8.998;2023-01-29T01:40:10;8.63;;;5.93;;
19402;SDS011;9837;48.888;8.998;2023-01-29T01:42:42;7.03;;;5.30;;
19402;SDS011;9837;48.888;8.998;2023-01-29T01:48:14;17.93;;;8.43;;
19402;SDS011;9837;48.888;8.998;2023-01-29T01:50:47;8.33;;;5.43;;
19402;SDS011;9837;48.888;8.998;2023-01-29T01:53:19;13.83;;;8.33;;
19402;SDS011;9837;48.888;8.998;2023-01-29T01:55:57;12.63;;;7.10;;
19402;SDS011;9837;48.888;8.998;2023-01-29T01:58:37;16.17;;;8.03;;
19402;SDS011;9837;48.888;8.998;2023-01-29T02:01:07;22.53;;;11.57;;
19402;SDS011;9837;48.888;8.998;2023-01-29T02:04:21;19.07;;;9.93;;
19402;SDS011;9837;48.888;8.998;2023-01-29T02:06:49;23.47;;;10.90;;
19402;SDS011;9837;48.888;8.998;2023-01-29T02:09:36;16.30;;;8.80;;
19402;SDS011;9837;48.888;8.998;2023-01-29T02:12:13;25.03;;;12.93;;
19402;SDS011;9837;48.888;8.998;2023-01-29T02:14:40;15.67;;;9.27;;
19402;SDS011;9837;48.888;8.998;2023-01-29T02:17:08;7.70;;;5.67;;
19402;SDS011;9837;48.888;8.998;2023-01-29T02:19:46;5.40;;;4.40;;
19402;SDS011;9837;48.888;8.998;2023-01-29T02:25:34;7.67;;;5.77;;
19402;SDS011;9837;48.888;8.998;2023-01-29T02:28:37;11.83;;;8.07;;
19402;SDS011;9837;48.888;8.998;2023-01-29T02:37:20;10.50;;;7.10;;
19402;SDS011;9837;48.888;8.998;2023-01-29T02:39:52;11.87;;;7.90;;
19402;SDS011;9837;48.888;8.998;2023-01-29T02:42:39;13.20;;;8.83;;
19402;SDS011;9837;48.888;8.998;2023-01-29T02:45:21;9.00;;;6.30;;
19402;SDS011;9837;48.888;8.998;2023-01-29T02:47:56;13.57;;;9.20;;
19402;SDS011;9837;48.888;8.998;2023-01-29T02:50:30;8.63;;;6.20;;
19402;SDS011;9837;48.888;8.998;2023-01-29T02:53:09;8.93;;;6.27;;
19402;SDS011;9837;48.888;8.998;2023-01-29T02:55:41;7.23;;;5.93;;
19402;SDS011;9837;48.888;8.998;2023-01-29T02:58:16;11.30;;;6.50;;
19402;SDS011;9837;48.888;8.998;2023-01-29T03:00:49;9.10;;;6.23;;
19402;SDS011;9837;48.888;8.998;2023-01-29T03:03:17;7.77;;;4.93;;
19402;SDS011;9837;48.888;8.998;2023-01-29T03:06:04;5.77;;;4.33;;
19402;SDS011;9837;48.888;8.998;2023-01-29T03:08:46;8.23;;;5.47;;
19402;SDS011;9837;48.888;8.998;2023-01-29T03:11:46;10.70;;;5.37;;
19402;SDS011;9837;48.888;8.998;2023-01-29T03:17:34;8.00;;;5.30;;
19402;SDS011;9837;48.888;8.998;2023-01-29T03:20:05;7.23;;;5.80;;
19402;SDS011;9837;48.888;8.998;2023-01-29T03:22:37;7.20;;;5.20;;
19402;SDS011;9837;48.888;8.998;2023-01-29T03:25:06;5.80;;;4.43;;
19402;SDS011;9837;48.888;8.998;2023-01-29T03:27:54;5.50;;;4.50;;
19402;SDS011;9837;48.888;8.998;2023-01-29T03:30:43;8.63;;;5.07;;
19402;SDS011;9837;48.888;8.998;2023-01-29T03:33:41;5.93;;;4.80;;
19402;SDS011;9837;48.888;8.998;2023-01-29T03:36:14;7.07;;;4.93;;
19402;SDS011;9837;48.888;8.998;2023-01-29T03:39:05;6.90;;;5.53;;
19402;SDS011;9837;48.888;8.998;2023-01-29T03:41:37;6.80;;;5.00;;
19402;SDS011;9837;48.888;8.998;2023-01-29T03:44:15;8.07;;;5.30;;
19402;SDS011;9837;48.888;8.998;2023-01-29T03:47:00;10.87;;;5.07;;
19402;SDS011;9837;48.888;8.998;2023-01-29T03:52:25;7.40;;;4.97;;
19402;SDS011;9837;48.888;8.998;2023-01-29T03:55:14;6.67;;;4.87;;
19402;SDS011;9837;48.888;8.998;2023-01-29T03:57:48;6.77;;;5.27;;
19402;SDS011;9837;48.888;8.998;2023-01-29T04:00:22;6.73;;;4.80;;
19402;SDS011;9837;48.888;8.998;2023-01-29T04:05:26;6.37;;;4.47;;
19402;SDS011;9837;48.888;8.998;2023-01-29T04:07:56;6.60;;;4.87;;
19402;SDS011;9837;48.888;8.998;2023-01-29T04:10:29;6.63;;;5.13;;
19402;SDS011;9837;48.888;8.998;2023-01-29T04:13:01;8.40;;;5.30;;
19402;SDS011;9837;48.888;8.998;2023-01-29T04:15:35;8.13;;;5.10;;
19402;SDS011;9837;48.888;8.998;2023-01-29T04:18:07;7.00;;;5.07;;
19402;SDS011;9837;48.888;8.998;2023-01-29T04:20:33;6.63;;;5.37;;
19402;SDS011;9837;48.888;8.998;2023-01-29T04:22:59;8.23;;;5.37;;
19402;SDS011;9837;48.888;8.998;2023-01-29T04:25:26;8.67;;;5.53;;
19402;SDS011;9837;48.888;8.998;2023-01-29T04:28:04;15.20;;;6.80;;
19402;SDS011;9837;48.888;8.998;2023-01-29T04:30:57;7.10;;;5.37;;
19402;SDS011;9837;48.888;8.998;2023-01-29T04:41:20;9.33;;;5.93;;
19402;SDS011;9837;48.888;8.998;2023-01-29T04:44:04;13.30;;;5.63;;
19402;SDS011;9837;48.888;8.998;2023-01-29T04:46:33;10.80;;;5.43;;
19402;SDS011;9837;48.888;8.998;2023-01-29T04:49:24;7.23;;;4.63;;
19402;SDS011;9837;48.888;8.998;2023-01-29T04:52:12;9.23;;;5.30;;
19402;SDS011;9837;48.888;8.998;2023-01-29T05:00:30;7.97;;;5.03;;
19402;SDS011;9837;48.888;8.998;2023-01-29T05:03:01;7.90;;;5.53;;
19402;SDS011;9837;48.888;8.998;2023-01-29T05:05:27;6.43;;;5.33;;
19402;SDS011;9837;48.888;8.998;2023-01-29T05:07:54;6.87;;;5.27;;
19402;SDS011;9837;48.888;8.998;2023-01-29T05:10:21;10.23;;;5.30;;
19402;SDS011;9837;48.888;8.998;2023-01-29T05:13:01;6.67;;;5.20;;
19402;SDS011;9837;48.888;8.998;2023-01-29T05:15:32;7.40;;;5.47;;
19402;SDS011;9837;48.888;8.998;2023-01-29T05:18:02;8.30;;;5.73;;
19402;SDS011;9837;48.888;8.998;2023-01-29T05:20:33;7.57;;;5.57;;
19402;SDS011;9837;48.888;8.998;2023-01-29T05:23:00;7.67;;;5.30;;
19402;SDS011;9837;48.888;8.998;2023-01-29T05:25:27;7.50;;;4.97;;
19402;SDS011;9837;48.888;8.998;2023-01-29T05:27:54;5.43;;;4.30;;
19402;SDS011;9837;48.888;8.998;2023-01-29T05:30:38;7.23;;;5.03;;
19402;SDS011;9837;48.888;8.998;2023-01-29T05:33:08;7.03;;;4.33;;
19402;SDS011;9837;48.888;8.998;2023-01-29T05:35:43;5.53;;;4.27;;
19402;SDS011;9837;48.888;8.998;2023-01-29T05:38:09;7.80;;;4.90;;
19402;SDS011;9837;48.888;8.998;2023-01-29T05:40:36;6.60;;;4.43;;
19402;SDS011;9837;48.888;8.998;2023-01-29T05:43:02;7.87;;;5.17;;
19402;SDS011;9837;48.888;8.998;2023-01-29T05:45:29;13.50;;;8.07;;
19402;SDS011;9837;48.888;8.998;2023-01-29T05:47:58;8.50;;;5.50;;
19402;SDS011;9837;48.888;8.998;2023-01-29T05:50:25;8.10;;;5.40;;
19402;SDS011;9837;48.888;8.998;2023-01-29T05:52:55;6.67;;;4.70;;
19402;SDS011;9837;48.888;8.998;2023-01-29T05:55:24;8.43;;;5.60;;
19402;SDS011;9837;48.888;8.998;2023-01-29T05:57:50;9.20;;;5.90;;
19402;SDS011;9837;48.888;8.998;2023-01-29T06:00:16;14.70;;;7.53;;
19402;SDS011;9837;48.888;8.998;2023-01-29T06:02:42;15.50;;;9.70;;
19402;SDS011;9837;48.888;8.998;2023-01-29T06:05:07;7.23;;;5.60;;
19402;SDS011;9837;48.888;8.998;2023-01-29T06:07:33;9.23;;;6.40;;
19402;SDS011;9837;48.888;8.998;2023-01-29T06:09:59;7.07;;;5.43;;
19402;SDS011;9837;48.888;8.998;2023-01-29T06:12:26;8.50;;;5.73;;
19402;SDS011;9837;48.888;8.998;2023-01-29T06:14:52;8.57;;;5.47;;
19402;SDS011;9837;48.888;8.998;2023-01-29T06:17:18;6.80;;;4.77;;
19402;SDS011;9837;48.888;8.998;2023-01-29T06:19:43;11.33;;;4.87;;
19402;SDS011;9837;48.888;8.998;2023-01-29T06:22:09;7.70;;;5.00;;
19402;SDS011;9837;48.888;8.998;2023-01-29T06:24:35;6.67;;;5.23;;
19402;SDS011;9837;48.888;8.998;2023-01-29T06:27:02;6.50;;;4.83;;
19402;SDS011;9837;48.888;8.998;2023-01-29T06:29:27;12.20;;;8.00;;
19402;SDS011;9837;48.888;8.998;2023-01-29T06:31:53;14.03;;;7.87;;
19402;SDS011;9837;48.888;8.998;2023-01-29T06:34:19;9.33;;;6.47;;
19402;SDS011;9837;48.888;8.998;2023-01-29T06:36:45;9.20;;;6.43;;
19402;SDS011;9837;48.888;8.998;2023-01-29T06:39:11;7.20;;;5.33;;
19402;SDS011;9837;48.888;8.998;2023-01-29T06:41:37;17.60;;;10.10;;
19402;SDS011;9837;48.888;8.998;2023-01-29T06:44:03;9.53;;;5.87;;
19402;SDS011;9837;48.888;8.998;2023-01-29T06:46:29;7.70;;;4.87;;
19402;SDS011;9837;48.888;8.998;2023-01-29T06:48:56;7.97;;;5.30;;
19402;SDS011;9837;48.888;8.998;2023-01-29T06:51:24;10.40;;;4.90;;
19402;SDS011;9837;48.888;8.998;2023-01-29T06:53:49;12.90;;;6.03;;
19402;SDS011;9837;48.888;8.998;2023-01-29T06:56:15;9.57;;;6.00;;
19402;SDS011;9837;48.888;8.998;2023-01-29T06:58:41;7.23;;;5.27;;
19402;SDS011;9837;48.888;8.998;2023-01-29T07:01:09;9.90;;;5.90;;
19402;SDS011;9837;48.888;8.998;2023-01-29T07:03:35;9.00;;;5.07;;
19402;SDS011;9837;48.888;8.998;2023-01-29T07:06:01;7.23;;;5.37;;
19402;SDS011;9837;48.888;8.998;2023-01-29T07:08:27;10.13;;;5.53;;
19402;SDS011;9837;48.888;8.998;2023-01-29T07:11:00;9.10;;;5.30;;
19402;SDS011;9837;48.888;8.998;2023-01-29T07:13:26;8.33;;;5.43;;
19402;SDS011;9837;48.888;8.998;2023-01-29T07:15:51;8.03;;;5.70;;
19402;SDS011;9837;48.888;8.998;2023-01-29T07:18:17;9.07;;;5.20;;
19402;SDS011;9837;48.888;8.998;2023-01-29T07:20:43;7.20;;;4.83;;
19402;SDS011;9837;48.888;8.998;2023-01-29T07:23:10;7.13;;;5.37;;
19402;SDS011;9837;48.888;8.998;2023-01-29T07:25:37;9.13;;;5.27;;
19402;SDS011;9837;48.888;8.998;2023-01-29T07:28:03;7.47;;;6.10;;
19402;SDS011;9837;48.888;8.998;2023-01-29T07:30:29;13.73;;;7.53;;
19402;SDS011;9837;48.888;8.998;2023-01-29T07:32:59;9.17;;;5.67;;
19402;SDS011;9837;48.888;8.998;2023-01-29T07:35:39;13.53;;;6.73;;
19402;SDS011;9837;48.888;8.998;2023-01-29T07:38:07;8.10;;;5.67;;
19402;SDS011;9837;48.888;8.998;2023-01-29T07:40:33;7.80;;;5.37;;
19402;SDS011;9837;48.888;8.998;2023-01-29T07:43:00;9.57;;;5.80;;
19402;SDS011;9837;48.888;8.998;2023-01-29T07:45:29;8.73;;;5.63;;
19402;SDS011;9837;48.888;8.998;2023-01-29T07:47:55;8.37;;;5.63;;
19402;SDS011;9837;48.888;8.998;2023-01-29T07:50:22;7.57;;;5.77;;
19402;SDS011;9837;48.888;8.998;2023-01-29T07:52:48;7.43;;;5.07;;
19402;SDS011;9837;48.888;8.998;2023-01-29T07:55:14;10.07;;;4.90;;
19402;SDS011;9837;48.888;8.998;2023-01-29T07:57:40;8.70;;;5.70;;
19402;SDS011;9837;48.888;8.998;2023-01-29T08:00:07;5.23;;;4.30;;
19402;SDS011;9837;48.888;8.998;2023-01-29T08:02:34;8.60;;;5.60;;
19402;SDS011;9837;48.888;8.998;2023-01-29T08:04:59;7.20;;;5.67;;
19402;SDS011;9837;48.888;8.998;2023-01-29T08:07:25;9.70;;;5.43;;
19402;SDS011;9837;48.888;8.998;2023-01-29T08:09:51;7.30;;;5.13;;
19402;SDS011;9837;48.888;8.998;2023-01-29T08:12:17;6.53;;;4.50;;
19402;SDS011;9837;48.888;8.998;2023-01-29T08:14:43;8.70;;;4.93;;
19402;SDS011;9837;48.888;8.998;2023-01-29T08:17:10;5.93;;;4.83;;
19402;SDS011;9837;48.888;8.998;2023-01-29T08:19:36;7.50;;;4.57;;
19402;SDS011;9837;48.888;8.998;2023-01-29T08:22:02;7.43;;;5.13;;
19402;SDS011;9837;48.888;8.998;2023-01-29T08:24:28;7.07;;;5.20;;
19402;SDS011;9837;48.888;8.998;2023-01-29T08:26:53;6.80;;;4.90;;
19402;SDS011;9837;48.888;8.998;2023-01-29T08:29:19;7.47;;;5.03;;
19402;SDS011;9837;48.888;8.998;2023-01-29T08:31:45;7.63;;;4.97;;
19402;SDS011;9837;48.888;8.998;2023-01-29T08:34:11;5.77;;;4.50;;
19402;SDS011;9837;48.888;8.998;2023-01-29T08:36:37;8.33;;;5.13;;
19402;SDS011;9837;48.888;8.998;2023-01-29T08:39:03;7.03;;;5.47;;
19402;SDS011;9837;48.888;8.998;2023-01-29T08:41:29;6.67;;;4.60;;
19402;SDS011;9837;48.888;8.998;2023-01-29T08:43:55;6.93;;;5.10;;
19402;SDS011;9837;48.888;8.998;2023-01-29T08:46:21;7.90;;;5.10;;
19402;SDS011;9837;48.888;8.998;2023-01-29T08:48:47;8.13;;;4.83;;
19402;SDS011;9837;48.888;8.998;2023-01-29T08:51:13;4.80;;;4.20;;
19402;SDS011;9837;48.888;8.998;2023-01-29T08:53:39;6.67;;;4.83;;
19402;SDS011;9837;48.888;8.998;2023-01-29T08:56:05;6.77;;;4.67;;
19402;SDS011;9837;48.888;8.998;2023-01-29T08:58:30;5.67;;;4.53;;
19402;SDS011;9837;48.888;8.998;2023-01-29T09:01:04;8.23;;;4.40;;
19402;SDS011;9837;48.888;8.998;2023-01-29T09:03:31;6.03;;;4.47;;
19402;SDS011;9837;48.888;8.998;2023-01-29T09:05:57;7.47;;;4.20;;
19402;SDS011;9837;48.888;8.998;2023-01-29T09:08:22;5.10;;;4.60;;
19402;SDS011;9837;48.888;8.998;2023-01-29T09:10:48;5.97;;;4.60;;
19402;SDS011;9837;48.888;8.998;2023-01-29T09:13:14;8.27;;;4.57;;
19402;SDS011;9837;48.888;8.998;2023-01-29T09:15:40;6.63;;;4.83;;
19402;SDS011;9837;48.888;8.998;2023-01-29T09:18:06;8.20;;;5.53;;
19402;SDS011;9837;48.888;8.998;2023-01-29T09:20:32;9.13;;;4.93;;
19402;SDS011;9837;48.888;8.998;2023-01-29T09:23:03;8.43;;;4.80;;
19402;SDS011;9837;48.888;8.998;2023-01-29T09:25:30;8.07;;;5.20;;
19402;SDS011;9837;48.888;8.998;2023-01-29T09:27:56;7.23;;;5.27;;
19402;SDS011;9837;48.888;8.998;2023-01-29T09:30:22;5.60;;;4.83;;
19402;SDS011;9837;48.888;8.998;2023-01-29T09:32:48;6.23;;;5.30;;
19402;SDS011;9837;48.888;8.998;2023-01-29T09:35:14;7.43;;;5.07;;
19402;SDS011;9837;48.888;8.998;2023-01-29T09:37:40;7.10;;;5.00;;
19402;SDS011;9837;48.888;8.998;2023-01-29T09:40:06;6.43;;;4.77;;
19402;SDS011;9837;48.888;8.998;2023-01-29T09:42:46;5.93;;;5.07;;
19402;SDS011;9837;48.888;8.998;2023-01-29T09:45:15;8.30;;;5.30;;
19402;SDS011;9837;48.888;8.998;2023-01-29T09:47:48;6.90;;;5.40;;
19402;SDS011;9837;48.888;8.998;2023-01-29T09:52:49;7.73;;;6.40;;
19402;SDS011;9837;48.888;8.998;2023-01-29T09:58:21;7.27;;;5.80;;
19402;SDS011;9837;48.888;8.998;2023-01-29T10:15:13;9.67;;;6.43;;
19402;SDS011;9837;48.888;8.998;2023-01-29T10:23:47;14.27;;;7.03;;
19402;SDS011;9837;48.888;8.998;2023-01-29T10:26:26;8.60;;;6.33;;
19402;SDS011;9837;48.888;8.998;2023-01-29T10:28:53;8.67;;;6.80;;
19402;SDS011;9837;48.888;8.998;2023-01-29T10:31:24;9.93;;;6.83;;
19402;SDS011;9837;48.888;8.998;2023-01-29T10:37:17;10.47;;;7.00;;
19402;SDS011;9837;48.888;8.998;2023-01-29T10:39:48;9.37;;;6.73;;
19402;SDS011;9837;48.888;8.998;2023-01-29T10:49:17;8.77;;;6.63;;
19402;SDS011;9837;48.888;8.998;2023-01-29T10:51:41;9.37;;;7.33;;
19402;SDS011;9837;48.888;8.998;2023-01-29T10:59:22;8.97;;;6.83;;
19402;SDS011;9837;48.888;8.998;2023-01-29T11:02:00;9.50;;;6.80;;
19402;SDS011;9837;48.888;8.998;2023-01-29T11:04:28;10.27;;;7.07;;
19402;SDS011;9837;48.888;8.998;2023-01-29T11:07:10;9.03;;;7.10;;
19402;SDS011;9837;48.888;8.998;2023-01-29T11:09:45;10.83;;;6.70;;
19402;SDS011;9837;48.888;8.998;2023-01-29T11:12:25;8.57;;;6.27;;
19402;SDS011;9837;48.888;8.998;2023-01-29T11:17:22;8.57;;;6.77;;
19402;SDS011;9837;48.888;8.998;2023-01-29T11:19:49;10.93;;;6.90;;
19402;SDS011;9837;48.888;8.998;2023-01-29T11:22:20;9.53;;;6.83;;
19402;SDS011;9837;48.888;8.998;2023-01-29T11:27:46;9.03;;;6.47;;
19402;SDS011;9837;48.888;8.998;2023-01-29T11:30:30;9.70;;;7.03;;
19402;SDS011;9837;48.888;8.998;2023-01-29T11:33:28;10.87;;;7.40;;
19402;SDS011;9837;48.888;8.998;2023-01-29T11:36:34;7.77;;;6.47;;
19402;SDS011;9837;48.888;8.998;2023-01-29T11:39:21;12.43;;;7.13;;
19402;SDS011;9837;48.888;8.998;2023-01-29T11:42:00;7.53;;;6.37;;
19402;SDS011;9837;48.888;8.998;2023-01-29T11:46:55;10.20;;;7.67;;
19402;SDS011;9837;48.888;8.998;2023-01-29T11:49:47;10.80;;;7.40;;
19402;SDS011;9837;48.888;8.998;2023-01-29T11:52:39;9.13;;;7.13;;
19402;SDS011;9837;48.888;8.998;2023-01-29T11:55:30;9.40;;;6.80;;
19402;SDS011;9837;48.888;8.998;2023-01-29T11:58:37;9.07;;;7.00;;
19402;SDS011;9837;48.888;8.998;2023-01-29T12:01:29;9.17;;;6.90;;
19402;SDS011;9837;48.888;8.998;2023-01-29T12:04:03;10.37;;;8.00;;
19402;SDS011;9837;48.888;8.998;2023-01-29T12:06:44;9.63;;;7.27;;
19402;SDS011;9837;48.888;8.998;2023-01-29T12:09:15;9.43;;;7.03;;
19402;SDS011;9837;48.888;8.998;2023-01-29T12:11:47;8.30;;;6.83;;
19402;SDS011;9837;48.888;8.998;2023-01-29T12:14:32;10.00;;;7.50;;
19402;SDS011;9837;48.888;8.998;2023-01-29T12:17:00;10.57;;;7.30;;
19402;SDS011;9837;48.888;8.998;2023-01-29T12:19:39;9.73;;;6.90;;
19402;SDS011;9837;48.888;8.998;2023-01-29T12:22:19;8.70;;;6.90;;
19402;SDS011;9837;48.888;8.998;2023-01-29T12:25:02;9.47;;;7.40;;
19402;SDS011;9837;48.888;8.998;2023-01-29T12:27:54;10.10;;;7.03;;
19402;SDS011;9837;48.888;8.998;2023-01-29T12:30:47;9.37;;;6.90;;
19402;SDS011;9837;48.888;8.998;2023-01-29T12:34:03;9.03;;;6.83;;
19402;SDS011;9837;48.888;8.998;2023-01-29T12:36:37;11.17;;;7.73;;
19402;SDS011;9837;48.888;8.998;2023-01-29T12:39:17;11.30;;;7.50;;
19402;SDS011;9837;48.888;8.998;2023-01-29T12:41:57;11.60;;;7.13;;
19402;SDS011;9837;48.888;8.998;2023-01-29T12:47:06;8.93;;;6.83;;
19402;SDS011;9837;48.888;8.998;2023-01-29T12:49:56;11.00;;;7.40;;
19402;SDS011;9837;48.888;8.998;2023-01-29T12:52:36;8.90;;;7.20;;
19402;SDS011;9837;48.888;8.998;2023-01-29T12:55:15;9.90;;;6.57;;
19402;SDS011;9837;48.888;8.998;2023-01-29T13:00:20;10.10;;;7.23;;
19402;SDS011;9837;48.888;8.998;2023-01-29T13:05:44;10.83;;;7.37;;
19402;SDS011;9837;48.888;8.998;2023-01-29T13:08:31;10.00;;;6.70;;
19402;SDS011;9837;48.888;8.998;2023-01-29T13:11:05;11.60;;;6.63;;
19402;SDS011;9837;48.888;8.998;2023-01-29T13:13:37;11.07;;;6.93;;
19402;SDS011;9837;48.888;8.998;2023-01-29T13:16:16;9.57;;;7.17;;
19402;SDS011;9837;48.888;8.998;2023-01-29T13:18:57;9.53;;;6.70;;
19402;SDS011;9837;48.888;8.998;2023-01-29T13:21:28;9.93;;;7.23;;
19402;SDS011;9837;48.888;8.998;2023-01-29T13:23:59;10.23;;;6.60;;
19402;SDS011;9837;48.888;8.998;2023-01-29T13:26:29;8.93;;;6.80;;
19402;SDS011;9837;48.888;8.998;2023-01-29T13:28:55;9.47;;;6.83;;
19402;SDS011;9837;48.888;8.998;2023-01-29T13:31:37;14.20;;;8.33;;
19402;SDS011;9837;48.888;8.998;2023-01-29T13:36:39;9.77;;;7.37;;
19402;SDS011;9837;48.888;8.998;2023-01-29T13:41:54;11.70;;;7.23;;
19402;SDS011;9837;48.888;8.998;2023-01-29T13:44:22;9.37;;;7.07;;
19402;SDS011;9837;48.888;8.998;2023-01-29T13:46:58;8.17;;;6.67;;
19402;SDS011;9837;48.888;8.998;2023-01-29T13:55:06;10.77;;;8.13;;
19402;SDS011;9837;48.888;8.998;2023-01-29T13:59:58;8.77;;;6.57;;
19402;SDS011;9837;48.888;8.998;2023-01-29T14:02:28;8.67;;;6.47;;
19402;SDS011;9837;48.888;8.998;2023-01-29T14:07:54;9.50;;;7.10;;
19402;SDS011;9837;48.888;8.998;2023-01-29T14:10:21;8.37;;;6.20;;
19402;SDS011;9837;48.888;8.998;2023-01-29T14:12:51;8.47;;;6.63;;
19402;SDS011;9837;48.888;8.998;2023-01-29T14:15:20;8.90;;;6.20;;
19402;SDS011;9837;48.888;8.998;2023-01-29T14:18:05;9.93;;;6.17;;
19402;SDS011;9837;48.888;8.998;2023-01-29T14:26:04;8.53;;;6.67;;
19402;SDS011;9837;48.888;8.998;2023-01-29T14:28:42;9.50;;;6.20;;
19402;SDS011;9837;48.888;8.998;2023-01-29T14:31:26;8.67;;;7.07;;
19402;SDS011;9837;48.888;8.998;2023-01-29T14:34:20;9.80;;;6.40;;
19402;SDS011;9837;48.888;8.998;2023-01-29T14:36:49;14.20;;;6.43;;
19402;SDS011;9837;48.888;8.998;2023-01-29T14:39:22;8.27;;;6.63;;
19402;SDS011;9837;48.888;8.998;2023-01-29T14:41:55;9.53;;;6.67;;
19402;SDS011;9837;48.888;8.998;2023-01-29T14:47:16;9.13;;;6.03;;
19402;SDS011;9837;48.888;8.998;2023-01-29T14:49:55;7.43;;;6.23;;
19402;SDS011;9837;48.888;8.998;2023-01-29T14:52:27;8.20;;;6.17;;
19402;SDS011;9837;48.888;8.998;2023-01-29T14:55:03;7.23;;;5.40;;
19402;SDS011;9837;48.888;8.998;2023-01-29T14:57:32;6.10;;;5.17;;
19402;SDS011;9837;48.888;8.998;2023-01-29T15:00:04;7.27;;;5.80;;
19402;SDS011;9837;48.888;8.998;2023-01-29T15:02:39;8.00;;;5.97;;
19402;SDS011;9837;48.888;8.998;2023-01-29T15:05:11;7.87;;;5.73;;
19402;SDS011;9837;48.888;8.998;2023-01-29T15:07:55;7.77;;;5.73;;
19402;SDS011;9837;48.888;8.998;2023-01-29T15:10:38;7.67;;;5.50;;
19402;SDS011;9837;48.888;8.998;2023-01-29T15:13:22;5.60;;;4.43;;
19402;SDS011;9837;48.888;8.998;2023-01-29T15:15:59;8.60;;;5.50;;
19402;SDS011;9837;48.888;8.998;2023-01-29T15:18:33;6.63;;;4.83;;
19402;SDS011;9837;48.888;8.998;2023-01-29T15:21:08;6.27;;;5.40;;
19402;SDS011;9837;48.888;8.998;2023-01-29T15:23:36;6.07;;;5.07;;
19402;SDS011;9837;48.888;8.998;2023-01-29T15:26:04;8.37;;;4.87;;
19402;SDS011;9837;48.888;8.998;2023-01-29T15:28:32;6.33;;;4.77;;
19402;SDS011;9837;48.888;8.998;2023-01-29T15:31:00;5.47;;;4.00;;
19402;SDS011;9837;48.888;8.998;2023-01-29T15:33:28;6.10;;;4.43;;
19402;SDS011;9837;48.888;8.998;2023-01-29T15:35:56;6.10;;;5.07;;
19402;SDS011;9837;48.888;8.998;2023-01-29T15:38:24;8.10;;;5.20;;
19402;SDS011;9837;48.888;8.998;2023-01-29T15:40:51;8.87;;;4.70;;
19402;SDS011;9837;48.888;8.998;2023-01-29T15:43:18;8.60;;;4.87;;
19402;SDS011;9837;48.888;8.998;2023-01-29T15:45:45;7.07;;;5.07;;
19402;SDS011;9837;48.888;8.998;2023-01-29T15:48:14;6.33;;;4.63;;
19402;SDS011;9837;48.888;8.998;2023-01-29T15:50:44;6.90;;;4.47;;
19402;SDS011;9837;48.888;8.998;2023-01-29T15:53:14;7.63;;;4.87;;
19402;SDS011;9837;48.888;8.998;2023-01-29T15:55:43;7.23;;;4.87;;
19402;SDS011;9837;48.888;8.998;2023-01-29T15:58:12;6.57;;;4.47;;
19402;SDS011;9837;48.888;8.998;2023-01-29T16:00:47;6.50;;;4.93;;
19402;SDS011;9837;48.888;8.998;2023-01-29T16:03:24;8.30;;;4.73;;
19402;SDS011;9837;48.888;8.998;2023-01-29T16:05:52;9.13;;;5.60;;
19402;SDS011;9837;48.888;8.998;2023-01-29T16:08:19;6.20;;;4.53;;
19402;SDS011;9837;48.888;8.998;2023-01-29T16:10:46;8.43;;;4.97;;
19402;SDS011;9837;48.888;8.998;2023-01-29T16:13:49;7.23;;;5.07;;
19402;SDS011;9837;48.888;8.998;2023-01-29T16:16:17;6.73;;;4.10;;
19402;SDS011;9837;48.888;8.998;2023-01-29T16:18:45;6.93;;;5.10;;
19402;SDS011;9837;48.888;8.998;2023-01-29T16:21:29;6.00;;;4.80;;
19402;SDS011;9837;48.888;8.998;2023-01-29T16:23:59;7.67;;;5.80;;
19402;SDS011;9837;48.888;8.998;2023-01-29T16:26:46;8.43;;;5.57;;
19402;SDS011;9837;48.888;8.998;2023-01-29T16:29:15;9.87;;;6.00;;
19402;SDS011;9837;48.888;8.998;2023-01-29T16:31:43;7.30;;;5.37;;
19402;SDS011;9837;48.888;8.998;2023-01-29T16:34:24;6.80;;;5.20;;
19402;SDS011;9837;48.888;8.998;2023-01-29T16:36:56;8.77;;;5.77;;
19402;SDS011;9837;48.888;8.998;2023-01-29T16:39:24;8.90;;;5.20;;
19402;SDS011;9837;48.888;8.998;2023-01-29T16:42:36;7.73;;;5.83;;
19402;SDS011;9837;48.888;8.998;2023-01-29T16:44:47;9.13;;;5.70;;
19402;SDS011;9837;48.888;8.998;2023-01-29T16:47:30;8.43;;;6.33;;
19402;SDS011;9837;48.888;8.998;2023-01-29T16:53:18;7.83;;;5.37;;
19402;SDS011;9837;48.888;8.998;2023-01-29T16:55:47;10.00;;;6.03;;
19402;SDS011;9837;48.888;8.998;2023-01-29T16:58:18;9.13;;;6.27;;
19402;SDS011;9837;48.888;8.998;2023-01-29T17:00:53;8.20;;;5.67;;
19402;SDS011;9837;48.888;8.998;2023-01-29T17:03:25;9.33;;;5.90;;
19402;SDS011;9837;48.888;8.998;2023-01-29T17:05:52;8.50;;;6.03;;
19402;SDS011;9837;48.888;8.998;2023-01-29T17:08:23;10.27;;;6.77;;
19402;SDS011;9837;48.888;8.998;2023-01-29T17:10:52;9.83;;;6.40;;
19402;SDS011;9837;48.888;8.998;2023-01-29T17:13:34;8.90;;;6.07;;
19402;SDS011;9837;48.888;8.998;2023-01-29T17:16:45;8.47;;;6.63;;
19402;SDS011;9837;48.888;8.998;2023-01-29T17:19:16;11.17;;;6.60;;
19402;SDS011;9837;48.888;8.998;2023-01-29T17:21:44;8.03;;;5.97;;
19402;SDS011;9837;48.888;8.998;2023-01-29T17:24:10;7.57;;;5.83;;
19402;SDS011;9837;48.888;8.998;2023-01-29T17:26:36;9.13;;;6.23;;
19402;SDS011;9837;48.888;8.998;2023-01-29T17:29:04;8.73;;;6.33;;